Stations météo

réclame
Mon MeteoGroup
Carpentras, France (7586): Température de l'air & dewpoint: 20.01.2020 22:00:00 - 26.01.2020 22:00:00 (CET)Carpentras, France (7586): Température de l'air 5cm: 20.01.2020 22:00:00 - 26.01.2020 22:00:00 (CET)Carpentras, France (7586): Température de l'air -20cm & Température de l'air -100cm: 20.01.2020 22:00:00 - 26.01.2020 22:00:00 (CET)Carpentras, France (7586): Vitesse du vent & gusts: 20.01.2020 22:00:00 - 26.01.2020 22:00:00 (CET)Carpentras, France (7586): Direction du vent: 20.01.2020 22:00:00 - 26.01.2020 22:00:00 (CET)Carpentras, France (7586): reduced air pressure: 20.01.2020 22:00:00 - 26.01.2020 22:00:00 (CET)Carpentras, France (7586): Ensoleillement: 20.01.2020 22:00:00 - 26.01.2020 22:00:00 (CET)Carpentras, France (7586): Quantités de précipitations: 20.01.2020 22:00:00 - 26.01.2020 22:00:00 (CET)
Date & Time tt [°C] td [°C] tt 5cm [°C] tt -20cm [°C] tt -100cm [°C] ff [km/h] ff [knt] fx [km/h] fx [knt] dd ppp [hPa] sd [min] rr [mm]
26.01.2020 22:00:00 5,8 5,1 1,7 9,1 9,1 7 4 - - E 1022,1 0 0,0
26.01.2020 21:00:00 6,2 5,0 2,1 9,3 9,1 2 1 - - ESE 1021,9 0 0,0
26.01.2020 20:00:00 7,9 6,8 4,0 9,3 9,1 4 2 - - E 1021,5 0 0,0
26.01.2020 19:00:00 9,4 7,7 8,0 9,3 9,1 0 0 - - N 1021,2 0 0,0
26.01.2020 18:00:00 10,2 7,8 8,8 9,2 9,1 2 1 - - W 1020,8 0 0,0
26.01.2020 17:00:00 11,2 8,1 11,3 9,0 9,1 0 0 - - N 1020,5 0 0,0
26.01.2020 16:00:00 12,2 7,5 13,1 8,8 9,0 2 1 - - NW 1020,6 25 0,0
26.01.2020 15:00:00 11,1 7,6 12,1 8,6 9,0 5 3 - - NNW 1020,6 7 0,0
26.01.2020 14:00:00 10,8 7,7 11,3 8,4 9,0 4 2 - - W 1020,9 0 0,0
26.01.2020 13:00:00 10,4 8,0 9,4 8,4 9,0 3 2 - - WNW 1021,1 0 0,0
26.01.2020 12:00:00 9,8 7,0 8,8 8,4 9,0 4 2 - - ESE 1021,5 0 0,0
26.01.2020 11:00:00 9,0 7,1 8,4 8,4 9,0 8 4 - - SE 1021,3 0 0,2
26.01.2020 10:00:00 8,4 7,0 7,7 8,4 9,0 11 6 - - E 1020,9 0 2,2
26.01.2020 09:00:00 8,0 6,9 7,3 8,4 9,0 6 3 - - E 1020,7 0 1,8
26.01.2020 08:00:00 7,6 6,7 7,3 8,5 9,0 2 1 - - NE 1020,3 0 0,6
26.01.2020 07:00:00 7,7 6,6 6,7 8,5 9,0 3 2 - - E 1019,9 0 0,4
26.01.2020 06:00:00 7,7 6,5 6,8 8,6 9,0 0 0 - - N 1019,7 0 0,0
26.01.2020 05:00:00 8,0 6,3 6,9 8,7 9,0 5 3 - - WNW 1019,4 0 0,0
26.01.2020 04:00:00 8,3 6,4 7,2 8,7 8,9 4 2 - - E 1019,4 0 0,0
26.01.2020 03:00:00 8,2 7,3 7,6 8,8 8,9 6 3 - - ENE 1020,0 0 0,0
26.01.2020 02:00:00 8,3 7,2 7,4 8,8 8,9 5 3 - - N 1020,3 0 0,2
26.01.2020 01:00:00 8,7 7,1 7,6 8,9 8,9 0 0 - - N 1020,7 0 0,0
26.01.2020 00:00:00 8,6 7,4 7,8 9,0 8,9 8 5 13 7 ENE 1021,1 0 0,2
25.01.2020 23:00:00 8,6 6,9 7,4 9,0 8,9 3 2 - - SSE 1021,3 0 0,0
25.01.2020 22:00:00 8,5 6,8 7,4 9,1 8,9 3 1 - - SE 1021,3 0 0,0
25.01.2020 21:00:00 8,9 6,9 7,2 9,2 8,9 0 0 - - N 1021,3 0 0,0
25.01.2020 20:00:00 9,5 7,1 7,4 9,3 8,9 0 0 - - N 1020,9 0 0,0
25.01.2020 19:00:00 10,2 7,3 8,9 9,2 8,9 0 0 - - N 1020,6 0 0,0
25.01.2020 18:00:00 11,2 7,1 8,9 9,2 8,9 0 0 - - N 1020,4 0 0,0
25.01.2020 17:00:00 13,1 6,7 12,7 8,9 8,9 5 3 - - SSW 1020,4 23 0,0
25.01.2020 16:00:00 14,5 5,8 14,9 8,7 8,9 5 3 - - SSE 1020,8 38 0,0
25.01.2020 15:00:00 13,2 8,1 14,1 8,4 8,9 4 2 - - WNW 1021,2 0 0,0
25.01.2020 14:00:00 12,5 7,4 14,1 8,1 8,8 4 2 - - SW 1022,0 0 0,0
25.01.2020 13:00:00 12,5 7,6 14,3 7,9 8,8 3 1 - - SW 1022,8 30 0,0
25.01.2020 12:00:00 11,8 7,5 13,5 7,7 8,8 6 3 - - W 1023,2 22 0,0
25.01.2020 11:00:00 10,7 6,4 9,9 7,6 8,8 0 0 - - N 1023,3 25 0,0
25.01.2020 10:00:00 8,0 6,3 6,4 7,6 8,8 5 3 - - ENE 1023,2 12 0,0
25.01.2020 09:00:00 6,1 5,1 4,6 7,7 8,8 0 0 - - N 1023,1 10 0,0
25.01.2020 08:00:00 6,2 5,0 3,9 7,8 8,8 3 1 - - ESE 1022,5 0 0,0
25.01.2020 07:00:00 6,6 5,2 5,5 7,8 8,8 4 2 - - ESE 1022,2 0 0,0
25.01.2020 06:00:00 7,0 5,1 6,0 7,9 8,8 4 2 - - ENE 1022,1 0 0,4
25.01.2020 05:00:00 7,5 5,5 6,5 7,9 8,8 3 1 - - SE 1022,3 0 0,0
25.01.2020 04:00:00 7,5 4,6 6,4 8,0 8,8 4 2 - - SE 1022,3 0 0,0
25.01.2020 03:00:00 7,5 5,0 6,8 8,0 8,8 5 3 - - E 1022,6 0 0,0
25.01.2020 02:00:00 7,4 5,2 5,9 8,2 8,8 3 2 - - E 1022,7 0 0,0
25.01.2020 01:00:00 7,5 5,1 5,6 8,2 8,8 4 2 - - E 1022,9 0 0,0
25.01.2020 00:00:00 7,5 5,3 6,0 8,3 8,7 2 1 - - ESE 1023,0 0 0,0
24.01.2020 23:00:00 8,2 5,7 6,9 8,4 8,7 3 1 - - SE 1023,0 0 0,0
24.01.2020 22:00:00 7,9 5,9 7,0 8,4 8,7 2 1 - - ESE 1023,1 0 0,0
24.01.2020 21:00:00 8,6 6,0 7,4 8,5 8,7 0 0 - - N 1023,1 0 0,0
24.01.2020 20:00:00 8,8 6,2 7,6 8,5 8,7 0 0 - - N 1022,6 0 0,0
24.01.2020 19:00:00 8,9 6,2 7,7 8,6 8,7 0 0 - - N 1022,3 0 0,0
24.01.2020 18:00:00 9,1 6,4 7,4 8,6 8,7 0 0 - - N 1022,2 0 0,0
24.01.2020 17:00:00 10,8 6,7 8,8 8,5 8,7 2 1 - - SE 1022,0 0 0,0
24.01.2020 16:00:00 11,7 7,2 11,8 8,3 8,7 5 3 - - WNW 1022,2 1 0,0
24.01.2020 15:00:00 11,1 6,6 11,8 8,2 8,7 7 4 - - WSW 1022,4 0 0,0
24.01.2020 14:00:00 12,3 6,3 12,9 8,0 8,7 5 3 - - W 1022,5 0 0,0
24.01.2020 13:00:00 11,5 7,2 12,6 7,8 8,7 6 4 - - W 1023,1 2 0,0
24.01.2020 12:00:00 12,2 6,9 14,4 7,6 8,7 6 4 - - W 1024,0 36 0,0
24.01.2020 11:00:00 12,2 6,7 13,3 7,5 8,7 4 2 - - NW 1024,2 0 0,0
24.01.2020 10:00:00 10,9 6,2 8,5 7,5 8,7 0 0 - - N 1024,1 26 0,0
24.01.2020 09:00:00 8,6 5,5 7,9 7,5 8,7 0 0 - - N 1024,4 0 0,0
24.01.2020 08:00:00 9,4 5,8 8,1 7,5 8,7 3 1 - - E 1023,9 0 0,0
24.01.2020 07:00:00 9,7 5,3 8,3 7,5 8,7 4 2 - - WSW 1023,5 0 0,0
24.01.2020 06:00:00 10,9 3,9 9,2 7,5 8,7 4 2 - - W 1023,2 0 0,0
24.01.2020 05:00:00 12,5 2,9 9,3 7,5 8,7 2 1 - - ESE 1023,2 0 0,0
24.01.2020 04:00:00 11,4 4,4 9,3 7,5 8,7 6 3 - - NE 1023,7 0 0,0
24.01.2020 03:00:00 11,9 3,9 10,1 7,4 8,7 6 4 - - NNW 1024,2 0 0,0
24.01.2020 02:00:00 11,8 3,3 9,5 7,4 8,7 4 2 - - NNE 1024,5 0 0,0
24.01.2020 01:00:00 12,1 3,6 9,9 7,4 8,7 0 0 - - N 1024,9 0 0,0
24.01.2020 00:00:00 13,5 3,0 12,3 7,3 8,7 7 4 - - E 1025,2 0 0,0
23.01.2020 23:00:00 13,9 3,4 12,9 7,3 8,7 18 10 - - SE 1025,1 0 0,0
23.01.2020 22:00:00 13,7 3,5 12,5 7,2 8,7 19 10 - - ESE 1025,0 0 0,0
23.01.2020 21:00:00 13,6 4,5 11,7 7,1 8,7 15 8 - - ESE 1025,1 0 0,0
23.01.2020 20:00:00 12,9 4,8 11,3 7,0 8,7 3 2 - - E 1025,5 0 0,0
23.01.2020 19:00:00 13,1 5,5 11,8 6,9 8,7 13 7 - - E 1025,3 0 0,0
23.01.2020 18:00:00 14,1 5,2 12,5 6,7 8,7 14 8 - - SE 1025,2 0 0,0
23.01.2020 17:00:00 14,6 5,4 13,9 6,5 8,7 10 5 - - ESE 1024,7 0 0,0
23.01.2020 16:00:00 15,0 5,8 14,6 6,2 8,7 6 3 - - E 1024,4 0 0,0
23.01.2020 15:00:00 15,2 6,2 15,1 5,8 8,7 5 3 - - NE 1024,6 3 0,0
23.01.2020 14:00:00 14,7 6,0 15,1 5,5 8,7 6 3 - - ESE 1024,7 7 0,0
23.01.2020 13:00:00 14,3 6,1 9,6 5,2 8,7 18 10 - - E 1025,2 0 0,0
23.01.2020 12:00:00 7,5 4,4 7,9 5,1 8,7 6 4 - - WNW 1026,8 0 0,0
23.01.2020 11:00:00 5,5 3,0 4,3 5,0 8,7 0 0 - - N 1027,6 0 0,0
23.01.2020 10:00:00 4,5 2,8 2,8 5,0 8,7 4 2 - - W 1027,2 0 0,0
23.01.2020 09:00:00 2,7 1,7 0,9 5,1 8,7 3 2 - - E 1027,6 0 0,0
23.01.2020 08:00:00 2,2 1,0 0,8 5,2 8,7 5 3 - - E 1027,6 0 0,0
23.01.2020 07:00:00 2,5 1,6 1,7 5,2 8,7 6 3 - - SSW 1026,7 0 0,0
23.01.2020 06:00:00 2,5 1,8 1,3 5,3 8,7 3 1 - - SSW 1027,0 0 0,0
23.01.2020 05:00:00 1,9 1,0 1,3 5,4 8,7 0 0 - - N 1027,9 0 0,0
23.01.2020 04:00:00 1,9 0,9 0,7 5,5 8,7 4 2 - - S 1028,2 0 0,0
23.01.2020 03:00:00 1,6 1,0 0,1 5,6 8,7 5 3 - - ESE 1028,5 0 0,0
23.01.2020 02:00:00 1,1 0,5 -0,8 5,7 8,7 3 1 - - SE 1027,5 0 0,0
23.01.2020 01:00:00 1,0 0,3 -0,9 5,9 8,7 4 2 - - NE 1027,9 0 0,0
23.01.2020 00:00:00 1,8 1,1 -0,4 6,0 8,7 4 2 - - SSE 1027,8 0 0,0
22.01.2020 23:00:00 2,4 1,7 0,1 6,2 8,8 3 2 - - ESE 1028,1 0 0,0
22.01.2020 22:00:00 2,4 1,5 1,0 6,3 8,7 2 1 - - ESE 1028,1 0 0,0
22.01.2020 21:00:00 3,1 2,4 -0,3 6,5 8,7 2 1 - - SSE 1027,9 0 0,0
22.01.2020 20:00:00 3,1 2,1 0,0 6,6 8,8 3 2 - - E 1028,1 0 0,0
22.01.2020 19:00:00 4,4 3,1 0,9 6,6 8,8 3 1 - - SSE 1027,7 0 0,0
22.01.2020 18:00:00 5,6 3,6 1,9 6,6 8,8 3 2 - - ESE 1027,9 0 0,0
22.01.2020 17:00:00 8,3 4,7 6,8 6,5 8,8 0 0 - - N 1027,7 0 0,0
22.01.2020 16:00:00 9,1 4,1 10,0 6,3 8,8 0 0 - - N 1028,1 0 0,0
22.01.2020 15:00:00 8,8 3,6 9,8 6,0 8,8 0 0 - - N 1028,7 0 0,0
22.01.2020 14:00:00 8,5 3,5 9,4 5,8 8,8 3 2 - - W 1029,5 0 0,0
22.01.2020 13:00:00 7,5 3,5 8,1 5,7 8,8 3 2 - - WNW 1030,4 0 0,0
22.01.2020 12:00:00 7,0 2,9 8,1 5,5 8,8 2 1 - - N 1031,0 0 0,0
22.01.2020 11:00:00 6,5 2,4 7,4 5,4 8,8 2 1 - - WSW 1031,1 16 0,0
22.01.2020 10:00:00 5,5 2,3 3,8 5,4 8,8 4 2 - - S 1030,5 12 0,0
22.01.2020 09:00:00 3,9 1,8 3,4 5,4 8,8 4 2 - - ESE 1030,7 0 0,0
22.01.2020 08:00:00 3,7 1,4 3,4 5,4 8,8 4 2 - - W 1030,0 0 0,2
22.01.2020 07:00:00 3,7 1,4 3,2 5,5 8,8 3 2 - - N 1030,2 0 0,0
22.01.2020 06:00:00 3,2 0,9 1,8 5,6 8,8 3 2 - - NE 1030,0 0 0,0
22.01.2020 05:00:00 2,9 0,3 1,7 5,7 8,8 0 0 - - N 1031,0 0 0,0
22.01.2020 04:00:00 2,9 -0,2 0,2 5,8 8,8 3 1 - - SW 1031,2 0 0,0
22.01.2020 03:00:00 2,6 0,3 0,6 5,9 8,8 3 2 - - ENE 1031,5 0 0,0
22.01.2020 02:00:00 3,6 1,6 2,7 5,9 8,8 4 2 - - WSW 1031,7 0 0,0
22.01.2020 01:00:00 4,1 2,4 3,7 5,9 8,8 4 2 - - SSW 1032,5 0 0,0
22.01.2020 00:00:00 4,2 2,5 2,8 6,0 8,8 3 1 - - NE 1033,1 0 0,0
21.01.2020 23:00:00 4,0 1,9 2,8 6,1 8,8 0 0 - - N 1033,3 0 0,0
21.01.2020 22:00:00 3,8 2,6 2,4 6,2 8,8 4 2 - - SSW 1033,3 0 0,0
21.01.2020 21:00:00 4,3 3,1 3,2 6,2 8,8 3 2 - - SSE 1033,6 0 0,0
21.01.2020 20:00:00 4,2 3,0 3,0 6,3 8,8 2 1 - - S 1033,9 0 0,0
21.01.2020 19:00:00 4,4 3,1 3,1 6,3 8,8 4 2 - - SSE 1033,7 0 0,0
21.01.2020 18:00:00 4,7 2,9 3,1 6,3 8,8 0 0 - - N 1033,7 0 0,0
21.01.2020 17:00:00 6,5 3,3 6,4 6,2 8,8 0 0 - - N 1033,9 0 0,0
21.01.2020 16:00:00 6,7 2,6 7,6 6,0 8,8 0 0 - - N 1033,8 0 0,0
21.01.2020 15:00:00 6,7 2,9 7,4 5,8 8,9 5 3 - - S 1034,2 0 0,0
21.01.2020 14:00:00 6,6 3,2 5,8 5,7 8,9 3 2 - - S 1034,7 0 0,0
21.01.2020 13:00:00 5,2 2,9 5,5 5,6 8,9 4 2 - - ESE 1035,5 0 0,0
21.01.2020 12:00:00 5,2 3,4 4,8 5,5 8,9 6 3 - - S 1036,3 0 0,0
21.01.2020 11:00:00 4,3 2,8 4,2 5,5 8,9 0 0 - - N 1036,6 0 0,2
21.01.2020 10:00:00 3,9 2,9 3,8 5,5 8,9 3 1 - - SSE 1036,5 0 0,0
21.01.2020 09:00:00 3,6 2,7 3,3 5,5 8,9 0 0 - - N 1036,2 0 0,0
21.01.2020 08:00:00 3,4 2,5 3,2 5,5 8,9 3 2 - - E 1036,0 0 0,0
21.01.2020 07:00:00 3,3 2,1 3,2 5,5 8,9 2 1 - - S 1035,8 0 0,0
21.01.2020 06:00:00 3,5 2,6 3,3 5,5 8,9 3 1 - - NW 1035,9 0 0,4
21.01.2020 05:00:00 3,4 2,4 3,3 5,5 8,9 2 1 - - ESE 1036,3 0 0,2
21.01.2020 04:00:00 3,4 2,1 3,2 5,5 8,9 0 0 - - N 1036,0 0 0,4
21.01.2020 03:00:00 3,5 1,7 3,2 5,5 8,9 2 1 - - SSE 1036,3 0 0,0
21.01.2020 02:00:00 3,6 1,0 3,3 5,6 8,9 4 2 - - S 1036,7 0 0,0
21.01.2020 01:00:00 3,7 0,9 3,4 5,6 8,9 3 2 - - W 1036,9 0 0,0
21.01.2020 00:00:00 3,6 0,5 3,1 5,7 8,9 2 1 - - NNW 1037,3 0 0,0
20.01.2020 23:00:00 3,3 0,2 1,3 5,7 9,0 4 2 - - ESE 1037,0 0 0,0
20.01.2020 22:00:00 2,9 -0,2 1,2 5,8 9,0 0 0 - - N 1036,7 0 0,0

tt = Température de l'air
td = dewpoint
tt 5cm = Température de l'air 5cm
tt -20cm = Température de l'air -20cm
tt -100cm = Température de l'air -100cm
ff = Vitesse du vent
fx = gusts
dd = Direction du vent
ppp = reduced air pressure
sd = Ensoleillement
rr = Quantités de précipitations

stations d'obs. à proximité